METAR Data
IDs: Format: Raw Decoded Include TAF

Data at: 0846 UTC 03 Aug 2021

KL35 030835Z AUTO 00000KT 10SM CLR 10/03 A3040 RMK AO2
KL35 030815Z AUTO 00000KT 10SM CLR 10/02 A3041 RMK AO2
KL35 030755Z AUTO 00000KT 10SM CLR 11/03 A3041 RMK AO2
KL35 030735Z AUTO 00000KT 10SM CLR 11/03 A3041 RMK AO2
KL35 030715Z AUTO 00000KT 10SM CLR 11/03 A3041 RMK AO2
KL35 030655Z AUTO 00000KT 10SM CLR 11/03 A3041 RMK AO2
KL35 030635Z AUTO 00000KT 10SM CLR 11/03 A3041 RMK AO2
KL35 030615Z AUTO 00000KT 10SM CLR 12/03 A3041 RMK AO2
KL35 030555Z AUTO 00000KT 10SM CLR 12/03 A3041 RMK AO2
KL35 030535Z AUTO 00000KT 10SM CLR 13/02 A3041 RMK AO2
KL35 030515Z AUTO 00000KT 10SM CLR 13/03 A3042 RMK AO2
KL35 030455Z AUTO 00000KT 10SM CLR 14/02 A3041 RMK AO2
KL35 030435Z AUTO 00000KT 10SM CLR 15/03 A3041 RMK AO2
KL35 030415Z AUTO 00000KT 10SM CLR 16/03 A3041 RMK AO2
KL35 030355Z AUTO 00000KT 10SM CLR 16/02 A3040 RMK AO2
KL35 030335Z AUTO 00000KT 10SM CLR 18/02 A3040 RMK AO2
KL35 030315Z AUTO 00000KT 10SM CLR 19/02 A3039 RMK AO2
KL35 030250Z AUTO 00000KT 10SM CLR 21/02 A3039 RMK AO2
KL35 030235Z AUTO 00000KT 10SM CLR 22/01 A3039 RMK AO2
KL35 030215Z AUTO 24004KT 10SM CLR 22/01 A3039 RMK AO2
KL35 030155Z AUTO 27008KT 10SM CLR 23/03 A3039 RMK AO2
KL35 030135Z AUTO 27008KT 10SM CLR 23/03 A3038 RMK AO2
KL35 030115Z AUTO 27007G14KT 10SM CLR 25/03 A3038 RMK AO2
KL35 030055Z AUTO 28010KT 10SM CLR 25/02 A3039 RMK AO2
KL35 030035Z AUTO 28010KT 10SM CLR 26/03 A3039 RMK AO2
KL35 030015Z AUTO 28008KT 10SM CLR 26/03 A3038 RMK AO2
KL35 022355Z AUTO 05007G15KT 10SM CLR 27/01 A3039 RMK AO2
KL35 022335Z AUTO 05005KT 10SM CLR 27/01 A3039 RMK AO2
KL35 022315Z AUTO 06004KT 10SM CLR 27/00 A3039 RMK AO2
KL35 022255Z AUTO 05006KT 10SM CLR 27/01 A3039 RMK AO2
KL35 022235Z AUTO 11004KT 10SM CLR 27/01 A3039 RMK AO2
KL35 022215Z AUTO 08007KT 10SM CLR 27/01 A3040 RMK AO2
KL35 022155Z AUTO 08010G14KT 10SM CLR 27/01 A3040 RMK AO2
KL35 022135Z AUTO 07004KT 10SM CLR 27/01 A3041 RMK AO2
KL35 022115Z AUTO 11003KT 10SM CLR 27/01 A3041 RMK AO2
KL35 022055Z AUTO 09007KT 10SM CLR 26/00 A3042 RMK AO2
KL35 022035Z AUTO 06009KT 10SM CLR 26/01 A3042 RMK AO2
KL35 022015Z AUTO 06008KT 10SM CLR 26/01 A3043 RMK AO2
KL35 021955Z AUTO 13003KT 10SM CLR 26/01 A3043 RMK AO2
KL35 021935Z AUTO 09006KT 10SM CLR 25/00 A3044 RMK AO2
KL35 021915Z AUTO 07007G17KT 10SM CLR 26/00 A3045 RMK AO2
KL35 021855Z AUTO 07007KT 10SM CLR 26/00 A3044 RMK AO2
KL35 021835Z AUTO 07008KT 10SM CLR 25/00 A3045 RMK AO2
KL35 021815Z AUTO 07005KT 10SM CLR 25/00 A3045 RMK AO2
KL35 021755Z AUTO 06009G14KT 10SM CLR 25/00 A3045 RMK AO2
KL35 021735Z AUTO 05005KT 10SM CLR 25/00 A3045 RMK AO2
KL35 021715Z AUTO 02003KT 10SM CLR 24/00 A3046 RMK AO2
KL35 021655Z AUTO 06006KT 10SM CLR 24/01 A3046 RMK AO2
KL35 021635Z AUTO 03003KT 10SM CLR 23/01 A3046 RMK AO2
KL35 021615Z AUTO 00000KT 10SM CLR 22/03 A3046 RMK AO2
KL35 021555Z AUTO 28003KT 10SM CLR 20/05 A3047 RMK AO2
KL35 021535Z AUTO 00000KT 10SM CLR 17/05 A3047 RMK AO2
KL35 021515Z AUTO 28003KT 10SM CLR 16/04 A3047 RMK AO2
KL35 021455Z AUTO 29004KT 10SM CLR 13/06 A3047 RMK AO2
KL35 021435Z AUTO 28003KT 10SM CLR 12/06 A3047 RMK AO2
KL35 021415Z AUTO 00000KT 10SM CLR 10/05 A3047 RMK AO2
KL35 021355Z AUTO 00000KT 10SM CLR 08/03 A3047 RMK AO2
KL35 021335Z AUTO 00000KT 10SM CLR 07/02 A3046 RMK AO2
KL35 021315Z AUTO 00000KT 10SM CLR 07/02 A3046 RMK AO2
KL35 021255Z AUTO 00000KT 10SM CLR 07/02 A3045 RMK AO2
KL35 021235Z AUTO 00000KT 10SM CLR 07/02 A3045 RMK AO2
KL35 021215Z AUTO 00000KT 10SM CLR 07/02 A3044 RMK AO2
KL35 021155Z AUTO 00000KT 10SM CLR 07/02 A3044 RMK AO2
KL35 021135Z AUTO 00000KT 10SM CLR 07/02 A3044 RMK AO2
KL35 021115Z AUTO 00000KT 10SM CLR 07/02 A3044 RMK AO2
KL35 021055Z AUTO 00000KT 10SM CLR 07/02 A3044 RMK AO2
KL35 021035Z AUTO 00000KT 10SM CLR 07/02 A3044 RMK AO2
KL35 021015Z AUTO 00000KT 10SM CLR 08/02 A3043 RMK AO2
KL35 020955Z AUTO 00000KT 10SM CLR 08/02 A3043 RMK AO2
KL35 020935Z AUTO 21003KT 10SM CLR 08/02 A3043 RMK AO2
KL35 020915Z AUTO 00000KT 10SM CLR 08/02 A3044 RMK AO2
KL35 020855Z AUTO 00000KT 10SM CLR 08/03 A3044 RMK AO2
KL35 020835Z AUTO 00000KT 10SM CLR 08/03 A3044 RMK AO2
KL35 020815Z AUTO 00000KT 10SM CLR 09/04 A3044 RMK AO2
KL35 020755Z AUTO 18003KT 10SM CLR 10/03 A3044 RMK AO2
KL35 020735Z AUTO 00000KT 10SM CLR 10/04 A3044 RMK AO2
KL35 020715Z AUTO 00000KT 10SM CLR 10/03 A3045 RMK AO2
KL35 020655Z AUTO 00000KT 10SM CLR 11/04 A3044 RMK AO2
KL35 020635Z AUTO 00000KT 10SM CLR 11/05 A3045 RMK AO2
KL35 020615Z AUTO 28003KT 10SM CLR 12/05 A3044 RMK AO2
KL35 020555Z AUTO 00000KT 10SM CLR 13/06 A3044 RMK AO2
KL35 020535Z AUTO 00000KT 10SM CLR 13/06 A3044 RMK AO2
KL35 020515Z AUTO 00000KT 10SM CLR 13/06 A3044 RMK AO2
KL35 020455Z AUTO 00000KT 10SM CLR 15/06 A3044 RMK AO2
KL35 020435Z AUTO 00000KT 10SM CLR 15/07 A3043 RMK AO2
KL35 020415Z AUTO 25003KT 10SM CLR 16/07 A3042 RMK AO2
KL35 020355Z AUTO 00000KT 10SM CLR 17/07 A3042 RMK AO2
KL35 020335Z AUTO 26005KT 10SM CLR 17/07 A3041 RMK AO2
KL35 020315Z AUTO 27005KT 10SM CLR 18/06 A3041 RMK AO2
KL35 020255Z AUTO 26004KT 10SM CLR 18/06 A3040 RMK AO2
KL35 020235Z AUTO 26003KT 10SM CLR 20/06 A3040 RMK AO2
KL35 020215Z AUTO 26005KT 10SM CLR 21/07 A3040 RMK AO2
KL35 020155Z AUTO 27007KT 10SM CLR 22/07 A3039 RMK AO2
KL35 020135Z AUTO 28007KT 10SM CLR 22/06 A3039 RMK AO2
KL35 020115Z AUTO 28009KT 10SM CLR 23/06 A3039 RMK AO2
KL35 020055Z AUTO 27008KT 10SM CLR 23/06 A3039 RMK AO2
KL35 020035Z AUTO 27008G16KT 10SM SCT090 23/06 A3040 RMK AO2
KL35 020015Z AUTO 27012KT 10SM OVC080 23/06 A3040 RMK AO2
KL35 012355Z AUTO 27006KT 10SM OVC080 23/07 A3040 RMK AO2
KL35 012335Z AUTO 26004KT 10SM OVC080 23/07 A3040 RMK AO2
KL35 012315Z AUTO 27010KT 10SM BKN080 25/07 A3040 RMK AO2
KL35 012255Z AUTO 27006KT 10SM BKN090 23/07 A3041 RMK AO2
KL35 012235Z AUTO 02003KT 10SM OVC080 24/04 A3041 RMK AO2
KL35 012215Z AUTO 05003KT 10SM OVC080 24/04 A3041 RMK AO2
KL35 012155Z AUTO 33003KT 10SM OVC080 23/05 A3041 RMK AO2
KL35 012135Z AUTO 01004KT 10SM BKN080 25/05 A3041 RMK AO2
KL35 012115Z AUTO 15004KT 10SM SCT080 25/06 A3041 RMK AO2
KL35 012055Z AUTO 07004KT 10SM SCT080 25/06 A3041 RMK AO2